aviador You're here:

WBKL Decoded Metar

LABUAN in MALAYSIA
Report Time2017-06-22 21:00:00
UTC Time2017-06-22 22:21:42
Flight Rules Old
WindCalm
Visibility9999 m
Phenomena:N/A
Clouds:Few 012 Hf
Scattered 140 Hf
Broken 290 Hf
Expected CloudBase > 400 ft AGL from Temp-Dew spread
Ceiling29,000 ft
Temp26°C (ISA +11)
Dew Point25°C (94% RH)
QNH1009 hPa
Density Alt1,942 ft
Elevation98 ft
Report Wrong Elevation
Raw Report
METAR WBKL 222100Z 00000KT 9999 FEW012 SCT140 BKN290 26/25 Q1009=

Extra information for WBKL:More info

Metar Taf Metar & Taf Last 4 Metars F.Rules Stats Wind Profile Meteogram Temp Stats Airport Information Weather charts Add Link Nearby VenuesMetar ALERT Operation Metar Decoded Social comments